Time,TemperatureF,DewpointF,PressureIn,WindDirection,WindDirectionDegrees,WindSpeedMPH,WindSpeedGustMPH,Humidity,HourlyPrecipIn,Conditions,Clouds,dailyrainin,SoftwareType,DateUTC
2013-04-22 00:04:00,43.7,26.7,30.17,North,357,5.8,5.8,51,0.00,CLR,SCT,0.00,WeatherDisplay:10.37,2013-04-22 07:04:00,
2013-04-22 00:09:00,43.7,26.7,30.17,North,9,5.8,5.8,51,0.00,CLR,SCT,0.00,WeatherDisplay:10.37,2013-04-22 07:09:00,
2013-04-22 00:14:00,43.5,26.6,30.17,North,353,5.8,5.8,51,0.00,CLR,SCT,0.00,WeatherDisplay:10.37,2013-04-22 07:14:00,
2013-04-22 00:19:00,43.3,25.9,30.17,North,6,6.3,6.3,50,0.00,CLR,SCT,0.00,WeatherDisplay:10.37,2013-04-22 07:19:00,
2013-04-22 00:24:00,43.3,25.9,30.17,NNW,328,8.1,8.1,50,0.00,CLR,SCT,0.00,WeatherDisplay:10.37,2013-04-22 07:24:00,
2013-04-22 00:29:00,43.2,25.8,30.17,NNW,344,6.0,9.0,50,0.00,CLR,SCT,0.00,WeatherDisplay:10.37,2013-04-22 07:29:00,
2013-04-22 00:35:00,42.8,25.4,30.17,North,0,5.8,5.8,50,0.00,CLR,SCT,0.00,WeatherDisplay:10.37,2013-04-22 07:35:00,
2013-04-22 00:40:00,42.4,25.6,30.17,North,0,5.8,5.8,51,0.00,CLR,SCT,0.00,WeatherDisplay:10.37,2013-04-22 07:40:00,
2013-04-22 00:45:00,42.3,25.9,30.17,North,350,5.8,5.8,52,0.00,CLR,SCT,0.00,WeatherDisplay:10.37,2013-04-22 07:45:00,
2013-04-22 00:50:00,42.3,25.4,30.17,NNE,13,8.1,8.1,51,0.00,CLR,SCT,0.00,WeatherDisplay:10.37,2013-04-22 07:50:00,
2013-04-22 00:55:00,42.6,25.3,30.17,North,353,10.4,10.4,50,0.00,CLR,SCT,0.00,WeatherDisplay:10.37,2013-04-22 07:55:00,
2013-04-22 01:00:00,42.8,25.9,30.17,North,3,10.4,10.4,51,0.00,CLR,SCT,0.00,WeatherDisplay:10.37,2013-04-22 08:00:00,
2013-04-22 01:05:00,42.8,25.9,30.17,NNW,343,6.9,6.9,51,0.00,CLR,SCT,0.00,WeatherDisplay:10.37,2013-04-22 08:05:00,
2013-04-22 01:10:00,42.6,26.2,30.17,North,357,5.8,5.8,52,0.00,CLR,SCT,0.00,WeatherDisplay:10.37,2013-04-22 08:10:00,
2013-04-22 01:15:00,42.4,26.0,30.17,NNE,24,8.1,8.1,52,0.00,CLR,SCT,0.00,WeatherDisplay:10.37,2013-04-22 08:15:00,
2013-04-22 01:20:00,42.4,26.0,30.17,NW,322,9.2,9.2,52,0.00,CLR,SCT,0.00,WeatherDisplay:10.37,2013-04-22 08:20:00,
2013-04-22 01:25:00,42.4,26.0,30.17,NNW,338,8.1,8.1,52,0.00,CLR,SCT,0.00,WeatherDisplay:10.37,2013-04-22 08:25:00,
2013-04-22 01:30:00,42.3,25.9,30.17,North,357,10.4,10.4,52,0.00,CLR,SCT,0.00,WeatherDisplay:10.37,2013-04-22 08:30:00,
2013-04-22 01:35:00,42.3,25.9,30.20,North,357,9.2,9.2,52,0.00,CLR,SCT,0.00,WeatherDisplay:10.37,2013-04-22 08:35:00,
2013-04-22 01:41:00,42.3,25.9,30.20,NNW,345,5.8,5.8,52,0.00,CLR,SCT,0.00,WeatherDisplay:10.37,2013-04-22 08:41:00,
2013-04-22 01:46:00,42.3,25.9,30.20,NNW,344,5.8,5.8,52,0.00,CLR,SCT,0.00,WeatherDisplay:10.37,2013-04-22 08:46:00,
2013-04-22 01:51:00,42.1,26.2,30.20,North,5,11.5,11.5,53,0.00,CLR,SCT,0.00,WeatherDisplay:10.37,2013-04-22 08:51:00,
2013-04-22 01:56:00,42.3,26.3,30.20,North,353,10.4,10.4,53,0.00,CLR,SCT,0.00,WeatherDisplay:10.37,2013-04-22 08:56:00,
2013-04-22 02:01:00,42.1,26.6,30.20,North,357,9.2,9.2,54,0.00,CLR,SCT,0.00,WeatherDisplay:10.37,2013-04-22 09:01:00,
2013-04-22 02:06:00,42.1,26.6,30.20,North,350,8.1,8.1,54,0.00,CLR,SCT,0.00,WeatherDisplay:10.37,2013-04-22 09:06:00,
2013-04-22 02:11:00,41.9,26.9,30.20,NNW,335,12.7,12.7,55,0.00,CLR,SCT,0.00,WeatherDisplay:10.37,2013-04-22 09:11:00,
2013-04-22 02:16:00,41.7,26.7,30.20,NNW,343,9.2,9.2,55,0.00,CLR,SCT,0.00,WeatherDisplay:10.37,2013-04-22 09:16:00,
2013-04-22 02:22:00,41.5,26.6,30.20,NW,321,8.1,8.1,55,0.00,CLR,SCT,0.00,WeatherDisplay:10.37,2013-04-22 09:22:00,
2013-04-22 02:27:00,41.2,26.2,30.20,NNW,332,5.8,5.8,55,0.00,CLR,SCT,0.00,WeatherDisplay:10.37,2013-04-22 09:27:00,
2013-04-22 02:32:00,41.0,26.5,30.20,North,353,8.1,8.1,56,0.00,CLR,SCT,0.00,WeatherDisplay:10.37,2013-04-22 09:32:00,
2013-04-22 02:37:00,40.6,26.6,30.20,North,0,5.8,5.8,57,0.00,CLR,SCT,0.00,WeatherDisplay:10.37,2013-04-22 09:37:00,
2013-04-22 02:43:00,40.6,26.6,30.20,North,353,6.9,6.9,57,0.00,CLR,SCT,0.00,WeatherDisplay:10.37,2013-04-22 09:43:00,
2013-04-22 02:48:00,40.5,26.4,30.20,NNW,335,5.8,5.8,57,0.00,CLR,SCT,0.00,WeatherDisplay:10.37,2013-04-22 09:48:00,
2013-04-22 02:53:00,40.3,26.2,30.20,NNW,346,5.8,5.8,57,0.00,CLR,SCT,0.00,WeatherDisplay:10.37,2013-04-22 09:53:00,
2013-04-22 02:58:00,40.1,26.1,30.20,NNW,331,5.8,5.8,57,0.00,CLR,SCT,0.00,WeatherDisplay:10.37,2013-04-22 09:58:00,
2013-04-22 03:03:00,39.7,25.7,30.20,NNW,327,5.8,5.8,57,0.00,CLR,SCT,0.00,WeatherDisplay:10.37,2013-04-22 10:03:00,
2013-04-22 03:08:00,39.4,25.8,30.20,NNW,330,4.6,4.6,58,0.00,CLR,SCT,0.00,WeatherDisplay:10.37,2013-04-22 10:08:00,
2013-04-22 03:14:00,39.2,26.1,30.20,North,353,8.1,8.1,59,0.00,CLR,SCT,0.00,WeatherDisplay:10.37,2013-04-22 10:14:00,
2013-04-22 03:19:00,39.2,26.9,30.20,NNW,337,5.8,5.8,61,0.00,CLR,SCT,0.00,WeatherDisplay:10.37,2013-04-22 10:19:00,
2013-04-22 03:24:00,39.2,26.9,30.20,NNW,342,7.2,7.2,61,0.00,CLR,SCT,0.00,WeatherDisplay:10.37,2013-04-22 10:24:00,
2013-04-22 03:29:00,39.2,26.9,30.20,NNW,344,8.1,8.1,61,0.00,CLR,SCT,0.00,WeatherDisplay:10.37,2013-04-22 10:29:00,
2013-04-22 03:34:00,39.2,26.9,30.20,North,357,8.1,8.1,61,0.00,CLR,SCT,0.00,WeatherDisplay:10.37,2013-04-22 10:34:00,
2013-04-22 03:40:00,39.2,26.5,30.20,NNW,333,6.9,6.9,60,0.00,CLR,SCT,0.00,WeatherDisplay:10.37,2013-04-22 10:40:00,
2013-04-22 03:45:00,39.4,26.2,30.20,NNW,344,9.2,9.2,59,0.00,CLR,SCT,0.00,WeatherDisplay:10.37,2013-04-22 10:45:00,
2013-04-22 03:50:00,39.4,26.2,30.20,NNW,336,8.1,8.1,59,0.00,CLR,SCT,0.00,WeatherDisplay:10.37,2013-04-22 10:50:00,
2013-04-22 03:55:00,39.4,26.2,30.20,North,353,5.8,5.8,59,0.00,CLR,SCT,0.00,WeatherDisplay:10.37,2013-04-22 10:55:00,
2013-04-22 04:00:00,39.4,25.8,30.20,NNW,336,9.2,9.2,58,0.00,CLR,SCT,0.00,WeatherDisplay:10.37,2013-04-22 11:00:00,
2013-04-22 04:06:00,39.4,25.8,30.23,North,353,8.1,8.1,58,0.00,CLR,SCT,0.00,WeatherDisplay:10.37,2013-04-22 11:06:00,
2013-04-22 04:11:00,39.4,25.8,30.23,NNW,343,5.8,5.8,58,0.00,CLR,SCT,0.00,WeatherDisplay:10.37,2013-04-22 11:11:00,
2013-04-22 04:16:00,39.4,25.8,30.23,NW,325,5.8,5.8,58,0.00,CLR,SCT,0.00,WeatherDisplay:10.37,2013-04-22 11:16:00,
2013-04-22 04:21:00,39.2,26.1,30.23,NNW,333,8.1,8.1,59,0.00,CLR,SCT,0.00,WeatherDisplay:10.37,2013-04-22 11:21:00,
2013-04-22 04:27:00,39.2,26.5,30.23,NNW,343,6.3,6.3,60,0.00,CLR,SCT,0.00,WeatherDisplay:10.37,2013-04-22 11:27:00,
2013-04-22 04:32:00,39.0,27.1,30.23,North,353,5.8,5.8,62,0.00,CLR,SCT,0.00,WeatherDisplay:10.37,2013-04-22 11:32:00,
2013-04-22 04:37:00,39.0,27.5,30.20,NNW,337,5.8,5.8,63,0.00,CLR,SCT,0.00,WeatherDisplay:10.37,2013-04-22 11:37:00,
2013-04-22 04:42:00,38.8,27.7,30.20,NNW,328,5.8,5.8,64,0.00,CLR,SCT,0.00,WeatherDisplay:10.37,2013-04-22 11:42:00,
2013-04-22 04:47:00,38.8,27.7,30.20,North,349,6.9,6.9,64,0.00,CLR,SCT,0.00,WeatherDisplay:10.37,2013-04-22 11:47:00,
2013-04-22 04:53:00,38.7,27.5,30.23,North,0,5.8,5.8,64,0.00,CLR,SCT,0.00,WeatherDisplay:10.37,2013-04-22 11:53:00,
2013-04-22 04:58:00,38.3,27.2,30.23,North,353,3.5,3.6,64,0.00,CLR,SCT,0.00,WeatherDisplay:10.37,2013-04-22 11:58:00,
2013-04-22 05:03:00,38.1,27.0,30.23,NNW,337,3.5,3.5,64,0.00,CLR,SCT,0.00,WeatherDisplay:10.37,2013-04-22 12:03:00,
2013-04-22 05:08:00,37.8,27.0,30.23,NNW,337,3.5,0.0,65,0.00,CLR,SCT,0.00,WeatherDisplay:10.37,2013-04-22 12:08:00,
2013-04-22 05:13:00,37.4,27.1,30.23,NNW,340,3.5,3.5,66,0.00,CLR,SCT,0.00,WeatherDisplay:10.37,2013-04-22 12:13:00,
2013-04-22 05:19:00,37.2,26.9,30.23,NNW,338,3.5,3.5,66,0.00,CLR,SCT,0.00,WeatherDisplay:10.37,2013-04-22 12:19:00,
2013-04-22 05:24:00,36.9,26.9,30.26,NNW,332,4.9,4.9,67,0.00,CLR,SCT,0.00,WeatherDisplay:10.37,2013-04-22 12:24:00,
2013-04-22 05:29:00,36.7,26.7,30.26,NNW,336,5.8,5.8,67,0.00,CLR,SCT,0.00,WeatherDisplay:10.37,2013-04-22 12:29:00,
2013-04-22 05:34:00,36.5,26.9,30.26,NNW,328,3.5,3.6,68,0.00,CLR,SCT,0.00,WeatherDisplay:10.37,2013-04-22 12:34:00,
2013-04-22 05:39:00,36.3,26.8,30.26,NNW,338,3.5,4.0,68,0.00,CLR,SCT,0.00,WeatherDisplay:10.37,2013-04-22 12:39:00,
2013-04-22 05:44:00,36.0,26.5,30.26,NNW,336,3.0,6.0,68,0.00,CLR,SCT,0.00,WeatherDisplay:10.37,2013-04-22 12:44:00,
2013-04-22 05:49:00,35.8,26.2,30.26,NNW,344,5.4,5.4,68,0.00,CLR,SCT,0.00,WeatherDisplay:10.37,2013-04-22 12:49:00,
2013-04-22 05:55:00,35.4,25.9,30.26,NNW,343,4.0,4.0,68,0.00,CLR,SCT,0.00,WeatherDisplay:10.37,2013-04-22 12:55:00,
2013-04-22 06:00:00,35.2,25.7,30.26,NW,326,3.5,3.5,68,0.00,CLR,SCT,0.00,WeatherDisplay:10.37,2013-04-22 13:00:00,
2013-04-22 06:05:00,35.1,25.9,30.26,NNW,337,3.1,0.0,69,0.00,CLR,SCT,0.00,WeatherDisplay:10.37,2013-04-22 13:05:00,
2013-04-22 06:10:00,35.1,26.3,30.26,NNW,344,3.5,3.6,70,0.00,CLR,SCT,0.00,WeatherDisplay:10.37,2013-04-22 13:10:00,
2013-04-22 06:15:00,34.9,26.1,30.26,North,357,3.5,0.0,70,0.00,CLR,SCT,0.00,WeatherDisplay:10.37,2013-04-22 13:15:00,
2013-04-22 06:20:00,34.9,26.4,30.26,North,349,3.5,0.0,71,0.00,CLR,SCT,0.00,WeatherDisplay:10.37,2013-04-22 13:20:00,
2013-04-22 06:25:00,34.9,26.4,30.26,North,353,0.0,0.0,71,0.00,CLR,SCT,0.00,WeatherDisplay:10.37,2013-04-22 13:25:00,
2013-04-22 06:30:00,34.9,26.4,30.26,North,353,2.3,0.0,71,0.00,CLR,SCT,0.00,WeatherDisplay:10.37,2013-04-22 13:30:00,
2013-04-22 06:35:00,34.9,26.8,30.26,North,10,3.5,0.0,72,0.00,CLR,SCT,0.00,WeatherDisplay:10.37,2013-04-22 13:35:00,
2013-04-22 06:41:00,35.1,26.9,30.26,North,10,3.5,0.0,72,0.00,CLR,SCT,0.00,WeatherDisplay:10.37,2013-04-22 13:41:00,
2013-04-22 06:46:00,35.4,27.3,30.26,North,10,3.5,0.0,72,0.00,CLR,SCT,0.00,WeatherDisplay:10.37,2013-04-22 13:46:00,
2013-04-22 06:51:00,35.6,27.1,30.29,North,4,2.3,0.0,71,0.00,CLR,SCT,0.00,WeatherDisplay:10.37,2013-04-22 13:51:00,
2013-04-22 06:56:00,35.8,26.9,30.29,NNE,17,2.2,0.0,70,0.00,CLR,SCT,0.00,WeatherDisplay:10.37,2013-04-22 13:56:00,
2013-04-22 07:01:00,35.8,26.6,30.29,NNE,16,0.0,0.0,69,0.00,CLR,SCT,0.00,WeatherDisplay:10.37,2013-04-22 14:01:00,
2013-04-22 07:06:00,36.3,27.1,30.29,North,4,2.3,2.3,69,0.00,CLR,SCT,0.00,WeatherDisplay:10.37,2013-04-22 14:06:00,
2013-04-22 07:11:00,36.7,27.1,30.29,North,4,0.0,0.0,68,0.00,CLR,SCT,0.00,WeatherDisplay:10.37,2013-04-22 14:11:00,
2013-04-22 07:17:00,37.0,26.7,30.29,North,4,0.0,0.0,66,0.00,CLR,SCT,0.00,WeatherDisplay:10.37,2013-04-22 14:17:00,
2013-04-22 07:22:00,37.6,26.5,30.29,North,357,0.0,0.0,64,0.00,CLR,SCT,0.00,WeatherDisplay:10.37,2013-04-22 14:22:00,
2013-04-22 07:27:00,38.1,26.6,30.29,North,2,0.0,0.0,63,0.00,CLR,SCT,0.00,WeatherDisplay:10.37,2013-04-22 14:27:00,
2013-04-22 07:32:00,38.7,27.1,30.29,North,353,0.0,0.0,63,0.00,CLR,SCT,0.00,WeatherDisplay:10.37,2013-04-22 14:32:00,
2013-04-22 07:37:00,39.4,26.6,30.29,NE,48,3.5,3.5,60,0.00,CLR,SCT,0.00,WeatherDisplay:10.37,2013-04-22 14:37:00,
2013-04-22 07:42:00,40.1,26.9,30.29,NE,47,0.0,0.0,59,0.00,CLR,SCT,0.00,WeatherDisplay:10.37,2013-04-22 14:42:00,
2013-04-22 07:48:00,40.5,26.0,30.29,NE,45,0.0,0.0,56,0.00,CLR,SCT,0.00,WeatherDisplay:10.37,2013-04-22 14:48:00,
2013-04-22 07:53:00,40.8,25.9,30.29,NE,45,3.5,0.0,55,0.00,CLR,SCT,0.00,WeatherDisplay:10.37,2013-04-22 14:53:00,
2013-04-22 07:58:00,41.2,26.2,30.29,NE,45,0.0,0.0,55,0.00,CLR,SCT,0.00,WeatherDisplay:10.37,2013-04-22 14:58:00,
2013-04-22 08:03:00,42.1,27.1,30.29,NE,36,3.5,3.5,55,0.00,CLR,SCT,0.00,WeatherDisplay:10.37,2013-04-22 15:03:00,
2013-04-22 08:08:00,43.0,27.0,30.29,NNW,329,5.8,0.0,53,0.00,CLR,SCT,0.00,WeatherDisplay:10.37,2013-04-22 15:08:00,
2013-04-22 08:13:00,43.3,27.3,30.29,North,353,4.6,4.6,53,0.00,CLR,SCT,0.00,WeatherDisplay:10.37,2013-04-22 15:13:00,
2013-04-22 08:19:00,43.3,26.9,30.29,NNW,339,8.1,8.1,52,0.00,CLR,SCT,0.00,WeatherDisplay:10.37,2013-04-22 15:19:00,
2013-04-22 08:24:00,43.7,27.2,30.32,NW,310,5.8,5.8,52,0.00,CLR,SCT,0.00,WeatherDisplay:10.37,2013-04-22 15:24:00,
2013-04-22 08:29:00,44.1,27.1,30.32,North,353,3.5,3.6,51,0.00,CLR,SCT,0.00,WeatherDisplay:10.37,2013-04-22 15:29:00,
2013-04-22 08:34:00,44.4,26.9,30.32,NW,324,5.8,5.8,50,0.00,CLR,SCT,0.00,WeatherDisplay:10.37,2013-04-22 15:34:00,
2013-04-22 08:40:00,45.1,27.6,30.32,North,353,8.3,8.3,50,0.00,CLR,SCT,0.00,WeatherDisplay:10.37,2013-04-22 15:40:00,
2013-04-22 08:45:00,46.6,26.4,30.32,North,7,10.4,10.4,45,0.00,CLR,SCT,0.00,WeatherDisplay:10.37,2013-04-22 15:45:00,
2013-04-22 08:50:00,47.5,26.1,30.32,NW,326,5.8,5.8,43,0.00,CLR,SCT,0.00,WeatherDisplay:10.37,2013-04-22 15:50:00,
2013-04-22 08:55:00,48.4,25.7,30.32,NW,325,10.4,10.4,41,0.00,CLR,SCT,0.00,WeatherDisplay:10.37,2013-04-22 15:55:00,
2013-04-22 09:00:00,48.4,25.1,30.32,North,9,11.5,11.5,40,0.00,CLR,SCT,0.00,WeatherDisplay:10.37,2013-04-22 16:00:00,
2013-04-22 09:06:00,48.7,25.5,30.32,North,350,6.3,6.3,40,0.00,CLR,SCT,0.00,WeatherDisplay:10.37,2013-04-22 16:06:00,
2013-04-22 09:11:00,48.7,25.5,30.32,NNE,16,5.8,5.8,40,0.00,CLR,SCT,0.00,WeatherDisplay:10.37,2013-04-22 16:11:00,
2013-04-22 09:16:00,48.0,24.8,30.32,NNW,341,8.1,8.1,40,0.00,CLR,SCT,0.00,WeatherDisplay:10.37,2013-04-22 16:16:00,
2013-04-22 09:21:00,47.3,24.2,30.32,ENE,63,4.0,4.0,40,0.00,CLR,SCT,0.00,WeatherDisplay:10.37,2013-04-22 16:21:00,
2013-04-22 09:26:00,47.5,24.9,30.32,NNW,335,8.1,8.1,41,0.00,CLR,SCT,0.00,WeatherDisplay:10.37,2013-04-22 16:26:00,
2013-04-22 09:31:00,47.3,24.2,30.32,NE,50,3.5,3.5,40,0.00,CLR,SCT,0.00,WeatherDisplay:10.37,2013-04-22 16:31:00,
2013-04-22 09:37:00,48.0,24.8,30.32,ESE,103,2.3,0.0,40,0.00,CLR,SCT,0.00,WeatherDisplay:10.37,2013-04-22 16:37:00,
2013-04-22 09:42:00,48.2,24.4,30.32,NNE,12,5.8,5.8,39,0.00,CLR,SCT,0.00,WeatherDisplay:10.37,2013-04-22 16:42:00,
2013-04-22 09:47:00,48.7,24.2,30.32,NNW,330,9.2,9.2,38,0.00,CLR,SCT,0.00,WeatherDisplay:10.37,2013-04-22 16:47:00,
2013-04-22 09:52:00,49.5,24.9,30.32,NNW,348,9.2,9.2,38,0.00,CLR,SCT,0.00,WeatherDisplay:10.37,2013-04-22 16:52:00,
2013-04-22 09:57:00,49.8,25.2,30.32,NW,326,8.1,8.1,38,0.00,CLR,SCT,0.00,WeatherDisplay:10.37,2013-04-22 16:57:00,
2013-04-22 10:02:00,50.5,25.8,30.32,NNE,23,5.8,5.8,38,0.00,CLR,SCT,0.00,WeatherDisplay:10.37,2013-04-22 17:02:00,
2013-04-22 10:08:00,51.6,26.8,30.32,NNW,333,8.1,8.1,38,0.00,CLR,SCT,0.00,WeatherDisplay:10.37,2013-04-22 17:08:00,
2013-04-22 10:13:00,51.4,26.0,30.32,West,275,5.8,5.8,37,0.00,CLR,SCT,0.00,WeatherDisplay:10.37,2013-04-22 17:13:00,
2013-04-22 10:18:00,52.2,26.6,30.32,NW,323,15.0,15.0,37,0.00,CLR,SCT,0.00,WeatherDisplay:10.37,2013-04-22 17:18:00,
2013-04-22 10:23:00,51.8,26.3,30.32,NE,39,10.9,10.9,37,0.00,CLR,SCT,0.00,WeatherDisplay:10.37,2013-04-22 17:23:00,
2013-04-22 10:28:00,52.3,26.8,30.32,NNW,343,5.8,5.8,37,0.00,CLR,SCT,0.00,WeatherDisplay:10.37,2013-04-22 17:28:00,
2013-04-22 10:33:00,52.5,27.0,30.32,NNW,327,10.4,10.4,37,0.00,CLR,SCT,0.00,WeatherDisplay:10.37,2013-04-22 17:33:00,
2013-04-22 10:38:00,52.9,27.3,30.32,NW,314,5.8,6.3,37,0.00,CLR,SCT,0.00,WeatherDisplay:10.37,2013-04-22 17:38:00,
2013-04-22 10:44:00,53.1,27.4,30.32,North,0,8.1,8.1,37,0.00,CLR,SCT,0.00,WeatherDisplay:10.37,2013-04-22 17:44:00,
2013-04-22 10:49:00,52.3,26.1,30.32,NNE,15,11.5,11.5,36,0.00,CLR,SCT,0.00,WeatherDisplay:10.37,2013-04-22 17:49:00,
2013-04-22 10:54:00,51.8,26.3,30.32,North,0,12.7,12.7,37,0.00,CLR,SCT,0.00,WeatherDisplay:10.37,2013-04-22 17:54:00,
2013-04-22 10:59:00,53.0,26.8,30.32,North,349,3.0,13.0,36,0.00,CLR,SCT,0.00,WeatherDisplay:10.37,2013-04-22 17:59:00,
2013-04-22 11:05:00,55.2,28.7,30.32,NW,324,11.5,11.5,36,0.00,CLR,SCT,0.00,WeatherDisplay:10.37,2013-04-22 18:05:00,
2013-04-22 11:10:00,55.0,28.5,30.32,North,350,11.5,11.5,36,0.00,CLR,SCT,0.00,WeatherDisplay:10.37,2013-04-22 18:10:00,
2013-04-22 11:15:00,54.9,28.4,30.32,NW,324,9.2,9.2,36,0.00,CLR,SCT,0.00,WeatherDisplay:10.37,2013-04-22 18:15:00,
2013-04-22 11:20:00,54.5,28.1,30.32,NNW,345,12.7,12.7,36,0.00,CLR,SCT,0.00,WeatherDisplay:10.37,2013-04-22 18:20:00,
2013-04-22 11:25:00,54.7,28.2,30.32,West,281,11.5,11.5,36,0.00,CLR,SCT,0.00,WeatherDisplay:10.37,2013-04-22 18:25:00,
2013-04-22 11:30:00,55.0,28.5,30.32,NNW,340,10.4,10.4,36,0.00,CLR,SCT,0.00,WeatherDisplay:10.37,2013-04-22 18:30:00,
2013-04-22 11:36:00,55.0,28.5,30.32,NNW,328,8.1,8.1,36,0.00,CLR,SCT,0.00,WeatherDisplay:10.37,2013-04-22 18:36:00,
2013-04-22 11:41:00,55.2,28.7,30.32,NNW,327,8.1,8.1,36,0.00,CLR,SCT,0.00,WeatherDisplay:10.37,2013-04-22 18:41:00,
2013-04-22 11:46:00,55.8,29.2,30.32,WNW,283,11.5,11.5,36,0.00,CLR,SCT,0.00,WeatherDisplay:10.37,2013-04-22 18:46:00,
2013-04-22 11:51:00,57.2,29.8,30.32,NNW,346,5.8,5.8,35,0.00,CLR,SCT,0.00,WeatherDisplay:10.37,2013-04-22 18:51:00,
2013-04-22 11:56:00,57.2,29.8,30.32,North,9,11.5,11.5,35,0.00,CLR,SCT,0.00,WeatherDisplay:10.37,2013-04-22 18:56:00,
2013-04-22 12:02:00,57.4,29.9,30.32,NW,324,10.4,10.4,35,0.00,CLR,SCT,0.00,WeatherDisplay:10.37,2013-04-22 19:02:00,
2013-04-22 12:07:00,58.5,30.9,30.32,NNW,346,8.1,8.1,35,0.00,CLR,SCT,0.00,WeatherDisplay:10.37,2013-04-22 19:07:00,
2013-04-22 12:12:00,58.3,30.7,30.32,NNE,24,8.1,8.3,35,0.00,CLR,SCT,0.00,WeatherDisplay:10.37,2013-04-22 19:12:00,
2013-04-22 12:17:00,58.1,30.6,30.32,NNW,346,11.5,11.5,35,0.00,CLR,SCT,0.00,WeatherDisplay:10.37,2013-04-22 19:17:00,
2013-04-22 12:22:00,57.6,30.1,30.29,NNW,333,6.9,7.6,35,0.00,CLR,SCT,0.00,WeatherDisplay:10.37,2013-04-22 19:22:00,
2013-04-22 12:28:00,57.6,30.1,30.29,WNW,285,11.5,11.5,35,0.00,CLR,SCT,0.00,WeatherDisplay:10.37,2013-04-22 19:28:00,
2013-04-22 12:33:00,58.1,30.6,30.29,NNW,340,15.0,15.0,35,0.00,CLR,SCT,0.00,WeatherDisplay:10.37,2013-04-22 19:33:00,
2013-04-22 12:38:00,58.3,30.7,30.29,West,273,12.7,12.7,35,0.00,CLR,SCT,0.00,WeatherDisplay:10.37,2013-04-22 19:38:00,
2013-04-22 12:43:00,59.0,31.4,30.29,WSW,252,8.1,8.1,35,0.00,CLR,SCT,0.00,WeatherDisplay:10.37,2013-04-22 19:43:00,
2013-04-22 12:48:00,59.5,31.8,30.29,North,6,12.7,12.7,35,0.00,CLR,SCT,0.00,WeatherDisplay:10.37,2013-04-22 19:48:00,
2013-04-22 12:53:00,59.5,31.8,30.29,NNE,23,11.5,11.5,35,0.00,CLR,SCT,0.00,WeatherDisplay:10.37,2013-04-22 19:53:00,
2013-04-22 12:59:00,58.8,31.2,30.29,NW,324,13.8,13.8,35,0.00,CLR,SCT,0.00,WeatherDisplay:10.37,2013-04-22 19:59:00,
2013-04-22 13:04:00,59.4,31.7,30.29,NW,310,5.8,5.8,35,0.00,CLR,SCT,0.00,WeatherDisplay:10.37,2013-04-22 20:04:00,
2013-04-22 13:09:00,59.5,31.8,30.29,NNE,22,18.4,18.4,35,0.00,CLR,SCT,0.00,WeatherDisplay:10.37,2013-04-22 20:09:00,
2013-04-22 13:14:00,59.4,31.7,30.29,ENE,65,10.4,10.4,35,0.00,CLR,SCT,0.00,WeatherDisplay:10.37,2013-04-22 20:14:00,
2013-04-22 13:19:00,59.5,31.8,30.29,North,2,12.7,12.7,35,0.00,CLR,SCT,0.00,WeatherDisplay:10.37,2013-04-22 20:19:00,
2013-04-22 13:24:00,60.1,32.3,30.29,NE,52,5.8,5.8,35,0.00,CLR,SCT,0.00,WeatherDisplay:10.37,2013-04-22 20:24:00,
2013-04-22 13:29:00,60.1,32.3,30.29,North,351,5.0,16.0,35,0.00,CLR,SCT,0.00,WeatherDisplay:10.37,2013-04-22 20:29:00,
2013-04-22 13:35:00,60.3,32.5,30.29,NNE,30,13.8,13.8,35,0.00,CLR,SCT,0.00,WeatherDisplay:10.37,2013-04-22 20:35:00,
2013-04-22 13:40:00,60.4,32.6,30.29,NNE,21,13.8,14.5,35,0.00,CLR,SCT,0.00,WeatherDisplay:10.37,2013-04-22 20:40:00,
2013-04-22 13:45:00,59.9,32.2,30.29,NNW,337,10.4,10.4,35,0.00,CLR,SCT,0.00,WeatherDisplay:10.37,2013-04-22 20:45:00,
2013-04-22 13:50:00,60.1,32.3,30.29,NW,326,16.3,16.3,35,0.00,CLR,SCT,0.00,WeatherDisplay:10.37,2013-04-22 20:50:00,
2013-04-22 13:55:00,60.1,32.3,30.29,North,1,15.0,15.0,35,0.00,CLR,SCT,0.00,WeatherDisplay:10.37,2013-04-22 20:55:00,
2013-04-22 14:00:00,59.7,32.0,30.29,NNW,332,10.4,10.4,35,0.00,CLR,SCT,0.00,WeatherDisplay:10.37,2013-04-22 21:00:00,
2013-04-22 14:06:00,60.3,32.5,30.29,North,353,12.7,12.7,35,0.00,CLR,SCT,0.00,WeatherDisplay:10.37,2013-04-22 21:06:00,
2013-04-22 14:11:00,60.4,32.6,30.29,NNW,345,12.7,12.7,35,0.00,CLR,SCT,0.00,WeatherDisplay:10.37,2013-04-22 21:11:00,
2013-04-22 14:16:00,59.4,31.7,30.29,North,8,18.4,18.4,35,0.00,CLR,SCT,0.00,WeatherDisplay:10.37,2013-04-22 21:16:00,
2013-04-22 14:21:00,59.5,31.8,30.29,North,0,12.7,12.7,35,0.00,CLR,SCT,0.00,WeatherDisplay:10.37,2013-04-22 21:21:00,
2013-04-22 14:26:00,59.7,32.0,30.29,NW,316,9.2,9.2,35,0.00,CLR,SCT,0.00,WeatherDisplay:10.37,2013-04-22 21:26:00,
2013-04-22 14:31:00,59.7,32.0,30.29,North,357,10.4,10.4,35,0.00,CLR,SCT,0.00,WeatherDisplay:10.37,2013-04-22 21:31:00,
2013-04-22 14:36:00,59.7,32.0,30.29,NNW,330,10.4,10.4,35,0.00,CLR,SCT,0.00,WeatherDisplay:10.37,2013-04-22 21:36:00,
2013-04-22 14:41:00,59.7,32.0,30.29,NNW,329,11.5,11.5,35,0.00,CLR,SCT,0.00,WeatherDisplay:10.37,2013-04-22 21:41:00,
2013-04-22 14:46:00,59.4,31.7,30.29,North,0,15.0,15.0,35,0.00,CLR,SCT,0.00,WeatherDisplay:10.37,2013-04-22 21:46:00,
2013-04-22 14:52:00,59.0,31.4,30.29,North,353,17.3,17.3,35,0.00,CLR,SCT,0.00,WeatherDisplay:10.37,2013-04-22 21:52:00,
2013-04-22 14:57:00,59.0,31.4,30.29,North,5,12.7,12.7,35,0.00,CLR,SCT,0.00,WeatherDisplay:10.37,2013-04-22 21:57:00,
2013-04-22 15:02:00,59.0,31.4,30.29,NNE,24,18.4,18.4,35,0.00,CLR,SCT,0.00,WeatherDisplay:10.37,2013-04-22 22:02:00,
2013-04-22 15:07:00,59.0,31.4,30.29,NE,34,13.8,13.8,35,0.00,CLR,SCT,0.00,WeatherDisplay:10.37,2013-04-22 22:07:00,
2013-04-22 15:12:00,58.8,31.2,30.29,NNW,333,15.0,15.0,35,0.00,CLR,SCT,0.00,WeatherDisplay:10.37,2013-04-22 22:12:00,
2013-04-22 15:17:00,59.2,31.5,30.29,North,353,10.9,10.9,35,0.00,CLR,SCT,0.00,WeatherDisplay:10.37,2013-04-22 22:17:00,
2013-04-22 15:22:00,59.7,32.0,30.26,North,357,12.7,12.7,35,0.00,CLR,SCT,0.00,WeatherDisplay:10.37,2013-04-22 22:22:00,
2013-04-22 15:28:00,59.7,32.0,30.26,North,2,20.1,20.1,35,0.00,CLR,SCT,0.00,WeatherDisplay:10.37,2013-04-22 22:28:00,
2013-04-22 15:33:00,59.4,31.7,30.26,North,0,15.0,15.0,35,0.00,CLR,SCT,0.00,WeatherDisplay:10.37,2013-04-22 22:33:00,
2013-04-22 15:38:00,59.4,31.7,30.26,North,353,13.8,13.8,35,0.00,CLR,SCT,0.00,WeatherDisplay:10.37,2013-04-22 22:38:00,
2013-04-22 15:43:00,59.4,31.7,30.26,NNW,331,13.8,13.8,35,0.00,CLR,SCT,0.00,WeatherDisplay:10.37,2013-04-22 22:43:00,
2013-04-22 15:48:00,59.0,31.4,30.26,North,353,12.7,12.7,35,0.00,CLR,SCT,0.00,WeatherDisplay:10.37,2013-04-22 22:48:00,
2013-04-22 15:53:00,59.4,31.7,30.26,North,6,12.7,12.7,35,0.00,CLR,SCT,0.00,WeatherDisplay:10.37,2013-04-22 22:53:00,
2013-04-22 15:58:00,59.2,31.5,30.26,NNW,335,17.3,17.3,35,0.00,CLR,SCT,0.00,WeatherDisplay:10.37,2013-04-22 22:58:00,
2013-04-22 16:04:00,58.8,31.2,30.26,NW,318,11.5,11.5,35,0.00,CLR,SCT,0.00,WeatherDisplay:10.37,2013-04-22 23:04:00,
2013-04-22 16:09:00,58.8,31.2,30.26,NNW,340,17.4,17.4,35,0.00,CLR,SCT,0.00,WeatherDisplay:10.37,2013-04-22 23:09:00,
2013-04-22 16:14:00,58.8,31.2,30.26,NW,311,15.0,15.0,35,0.00,CLR,SCT,0.00,WeatherDisplay:10.37,2013-04-22 23:14:00,
2013-04-22 16:19:00,58.8,31.2,30.26,NNW,331,12.7,12.7,35,0.00,CLR,SCT,0.00,WeatherDisplay:10.37,2013-04-22 23:19:00,
2013-04-22 16:24:00,58.5,30.9,30.26,NNE,20,11.5,11.5,35,0.00,CLR,SCT,0.00,WeatherDisplay:10.37,2013-04-22 23:24:00,
2013-04-22 16:29:00,58.5,30.9,30.26,North,1,12.7,12.7,35,0.00,CLR,SCT,0.00,WeatherDisplay:10.37,2013-04-22 23:29:00,
2013-04-22 16:35:00,58.6,31.0,30.26,North,357,15.0,15.0,35,0.00,CLR,SCT,0.00,WeatherDisplay:10.37,2013-04-22 23:35:00,
2013-04-22 16:40:00,58.6,31.0,30.26,North,0,15.0,15.0,35,0.00,CLR,SCT,0.00,WeatherDisplay:10.37,2013-04-22 23:40:00,
2013-04-22 16:45:00,58.5,30.9,30.26,NNE,33,12.7,12.7,35,0.00,CLR,SCT,0.00,WeatherDisplay:10.37,2013-04-22 23:45:00,
2013-04-22 16:50:00,57.9,30.4,30.26,NNW,346,16.1,16.1,35,0.00,CLR,SCT,0.00,WeatherDisplay:10.37,2013-04-22 23:50:00,
2013-04-22 16:55:00,57.6,30.1,30.26,NNE,18,8.1,9.6,35,0.00,CLR,SCT,0.00,WeatherDisplay:10.37,2013-04-22 23:55:00,
2013-04-22 17:00:00,57.6,30.1,30.26,NNW,328,13.6,13.6,35,0.00,CLR,SCT,0.00,WeatherDisplay:10.37,2013-04-23 00:00:00,
2013-04-22 17:05:00,57.4,29.9,30.26,NW,322,12.7,12.7,35,0.00,CLR,SCT,0.00,WeatherDisplay:10.37,2013-04-23 00:05:00,
2013-04-22 17:10:00,57.4,29.9,30.26,NNE,28,14.5,14.5,35,0.00,CLR,SCT,0.00,WeatherDisplay:10.37,2013-04-23 00:10:00,
2013-04-22 17:16:00,57.2,29.8,30.26,North,11,11.5,11.5,35,0.00,CLR,SCT,0.00,WeatherDisplay:10.37,2013-04-23 00:16:00,
2013-04-22 17:21:00,56.8,29.4,30.26,North,0,17.3,17.3,35,0.00,CLR,SCT,0.00,WeatherDisplay:10.37,2013-04-23 00:21:00,
2013-04-22 17:26:00,56.8,29.4,30.26,NNW,331,11.5,11.5,35,0.00,CLR,SCT,0.00,WeatherDisplay:10.37,2013-04-23 00:26:00,
2013-04-22 17:31:00,56.8,29.4,30.26,North,357,12.7,12.7,35,0.00,CLR,SCT,0.00,WeatherDisplay:10.37,2013-04-23 00:31:00,
2013-04-22 17:36:00,56.3,29.0,30.26,North,357,13.2,13.2,35,0.00,CLR,SCT,0.00,WeatherDisplay:10.37,2013-04-23 00:36:00,
2013-04-22 17:42:00,55.9,28.7,30.26,NNE,17,16.1,16.1,35,0.00,CLR,SCT,0.00,WeatherDisplay:10.37,2013-04-23 00:42:00,
2013-04-22 17:47:00,55.6,28.3,30.26,NE,34,10.4,10.4,35,0.00,CLR,SCT,0.00,WeatherDisplay:10.37,2013-04-23 00:47:00,
2013-04-22 17:52:00,55.4,28.2,30.26,North,0,11.5,11.5,35,0.00,CLR,SCT,0.00,WeatherDisplay:10.37,2013-04-23 00:52:00,
2013-04-22 17:57:00,55.6,28.3,30.26,North,353,8.1,8.3,35,0.00,CLR,SCT,0.00,WeatherDisplay:10.37,2013-04-23 00:57:00,
2013-04-22 18:02:00,55.4,28.2,30.26,NNW,338,13.8,13.8,35,0.00,CLR,SCT,0.00,WeatherDisplay:10.37,2013-04-23 01:02:00,
2013-04-22 18:07:00,54.7,28.2,30.26,NNW,346,12.7,12.7,36,0.00,CLR,SCT,0.00,WeatherDisplay:10.37,2013-04-23 01:07:00,
2013-04-22 18:12:00,54.3,27.9,30.26,NNW,339,13.8,13.8,36,0.00,CLR,SCT,0.00,WeatherDisplay:10.37,2013-04-23 01:12:00,
2013-04-22 18:17:00,54.0,27.6,30.26,North,10,12.7,12.7,36,0.00,CLR,SCT,0.00,WeatherDisplay:10.37,2013-04-23 01:17:00,
2013-04-22 18:22:00,53.8,27.4,30.29,NNW,334,11.5,11.5,36,0.00,CLR,SCT,0.00,WeatherDisplay:10.37,2013-04-23 01:22:00,
2013-04-22 18:28:00,53.6,27.3,30.29,NNE,20,11.5,11.5,36,0.00,CLR,SCT,0.00,WeatherDisplay:10.37,2013-04-23 01:28:00,
2013-04-22 18:33:00,53.4,27.1,30.29,NW,317,12.7,12.7,36,0.00,CLR,SCT,0.00,WeatherDisplay:10.37,2013-04-23 01:33:00,
2013-04-22 18:38:00,53.2,26.9,30.26,NNW,333,11.5,11.5,36,0.00,CLR,SCT,0.00,WeatherDisplay:10.37,2013-04-23 01:38:00,
2013-04-22 18:43:00,52.7,26.5,30.26,NNW,346,12.7,12.7,36,0.00,CLR,SCT,0.00,WeatherDisplay:10.37,2013-04-23 01:43:00,
2013-04-22 18:49:00,52.2,26.0,30.26,North,1,12.3,12.3,36,0.00,CLR,SCT,0.00,WeatherDisplay:10.37,2013-04-23 01:49:00,
2013-04-22 18:54:00,52.0,25.8,30.26,North,349,10.4,10.4,36,0.00,CLR,SCT,0.00,WeatherDisplay:10.37,2013-04-23 01:54:00,
2013-04-22 18:59:00,51.8,25.7,30.26,North,9,12.7,12.7,36,0.00,CLR,SCT,0.00,WeatherDisplay:10.37,2013-04-23 01:59:00,
2013-04-22 19:04:00,51.6,26.2,30.26,North,353,10.4,10.4,37,0.00,CLR,SCT,0.00,WeatherDisplay:10.37,2013-04-23 02:04:00,
2013-04-22 19:09:00,51.3,25.8,30.26,NNW,339,10.4,10.4,37,0.00,CLR,SCT,0.00,WeatherDisplay:10.37,2013-04-23 02:09:00,
2013-04-22 19:15:00,50.9,25.5,30.26,North,353,12.7,12.7,37,0.00,CLR,SCT,0.00,WeatherDisplay:10.37,2013-04-23 02:15:00,
2013-04-22 19:20:00,50.5,25.2,30.26,NW,323,13.8,13.8,37,0.00,CLR,SCT,0.00,WeatherDisplay:10.37,2013-04-23 02:20:00,
2013-04-22 19:25:00,50.2,24.9,30.26,North,3,11.5,11.5,37,0.00,CLR,SCT,0.00,WeatherDisplay:10.37,2013-04-23 02:25:00,
2013-04-22 19:30:00,50.0,24.7,30.26,NNW,338,10.4,10.4,37,0.00,CLR,SCT,0.00,WeatherDisplay:10.37,2013-04-23 02:30:00,
2013-04-22 19:35:00,49.6,24.4,30.29,North,350,5.8,5.8,37,0.00,CLR,SCT,0.00,WeatherDisplay:10.37,2013-04-23 02:35:00,
2013-04-22 19:41:00,49.5,24.2,30.29,NW,324,6.9,7.2,37,0.00,CLR,SCT,0.00,WeatherDisplay:10.37,2013-04-23 02:41:00,
2013-04-22 19:46:00,49.1,23.9,30.29,NNW,338,5.8,5.8,37,0.00,CLR,SCT,0.00,WeatherDisplay:10.37,2013-04-23 02:46:00,
2013-04-22 19:51:00,48.6,23.4,30.29,North,353,10.4,10.4,37,0.00,CLR,SCT,0.00,WeatherDisplay:10.37,2013-04-23 02:51:00,
2013-04-22 19:56:00,48.2,23.1,30.29,North,353,5.8,8.0,37,0.00,CLR,SCT,0.00,WeatherDisplay:10.37,2013-04-23 02:56:00,
2013-04-22 20:01:00,48.0,23.0,30.29,NNW,341,7.2,7.2,37,0.00,CLR,SCT,0.00,WeatherDisplay:10.37,2013-04-23 03:01:00,
2013-04-22 20:07:00,47.7,22.6,30.29,NNE,23,5.8,5.8,37,0.00,CLR,SCT,0.00,WeatherDisplay:10.37,2013-04-23 03:07:00,
2013-04-22 20:12:00,47.3,22.3,30.29,North,0,5.8,5.8,37,0.00,CLR,SCT,0.00,WeatherDisplay:10.37,2013-04-23 03:12:00,
2013-04-22 20:17:00,46.9,22.0,30.29,North,353,4.6,4.6,37,0.00,CLR,SCT,0.00,WeatherDisplay:10.37,2013-04-23 03:17:00,
2013-04-22 20:22:00,46.6,21.7,30.29,North,353,5.8,5.8,37,0.00,CLR,SCT,0.00,WeatherDisplay:10.37,2013-04-23 03:22:00,
2013-04-22 20:27:00,46.2,22.0,30.29,NNW,346,4.6,4.6,38,0.00,CLR,SCT,0.00,WeatherDisplay:10.37,2013-04-23 03:27:00,
2013-04-22 20:32:00,45.7,21.5,30.29,NNW,338,3.5,3.5,38,0.00,CLR,SCT,0.00,WeatherDisplay:10.37,2013-04-23 03:32:00,
2013-04-22 20:38:00,45.1,21.0,30.29,NNW,341,3.6,3.6,38,0.00,CLR,SCT,0.00,WeatherDisplay:10.37,2013-04-23 03:38:00,
2013-04-22 20:43:00,44.8,20.7,30.29,NNW,341,3.6,3.6,38,0.00,CLR,SCT,0.00,WeatherDisplay:10.37,2013-04-23 03:43:00,
2013-04-22 20:48:00,44.2,20.2,30.29,NNW,346,3.5,3.5,38,0.00,CLR,SCT,0.00,WeatherDisplay:10.37,2013-04-23 03:48:00,
2013-04-22 20:53:00,43.5,19.6,30.29,North,349,2.3,2.7,38,0.00,CLR,SCT,0.00,WeatherDisplay:10.37,2013-04-23 03:53:00,
2013-04-22 20:58:00,43.2,19.2,30.29,North,349,3.5,3.5,38,0.00,CLR,SCT,0.00,WeatherDisplay:10.37,2013-04-23 03:58:00,
2013-04-22 21:01:00,42.6,19.4,30.29,North,349,3.6,3.6,39,0.00,CLR,SCT,0.00,WeatherDisplay:10.37,2013-04-23 04:01:00,
2013-04-22 21:02:00,42.6,19.4,30.29,North,349,3.5,3.5,39,0.00,CLR,SCT,0.00,WeatherDisplay:10.37,2013-04-23 04:02:00,
2013-04-22 21:03:00,42.6,19.4,30.29,North,349,3.5,3.5,39,0.00,CLR,SCT,0.00,WeatherDisplay:10.37,2013-04-23 04:03:00,
2013-04-22 21:08:00,42.3,19.0,30.29,North,349,2.3,2.7,39,0.00,CLR,SCT,0.00,WeatherDisplay:10.37,2013-04-23 04:08:00,
2013-04-22 21:13:00,41.7,18.5,30.29,North,353,3.6,3.6,39,0.00,CLR,SCT,0.00,WeatherDisplay:10.37,2013-04-23 04:13:00,
2013-04-22 21:18:00,41.5,18.4,30.29,North,353,3.5,3.5,39,0.00,CLR,SCT,0.00,WeatherDisplay:10.37,2013-04-23 04:18:00,
2013-04-22 21:23:00,41.0,17.9,30.32,North,353,3.5,3.5,39,0.00,CLR,SCT,0.00,WeatherDisplay:10.37,2013-04-23 04:23:00,
2013-04-22 21:29:00,40.6,17.6,30.32,NNW,345,3.5,3.5,39,0.00,CLR,SCT,0.00,WeatherDisplay:10.37,2013-04-23 04:29:00,
2013-04-22 21:34:00,40.5,17.4,30.32,NNW,346,4.0,4.0,39,0.00,CLR,SCT,0.00,WeatherDisplay:10.37,2013-04-23 04:34:00,
2013-04-22 21:39:00,39.9,16.9,30.32,NNW,342,5.8,5.8,39,0.00,CLR,SCT,0.00,WeatherDisplay:10.37,2013-04-23 04:39:00,
2013-04-22 21:44:00,39.7,16.8,30.32,NNW,348,6.0,6.0,39,0.00,CLR,SCT,0.00,WeatherDisplay:10.37,2013-04-23 04:44:00,
2013-04-22 21:49:00,39.7,16.8,30.32,North,357,8.1,8.1,39,0.00,CLR,SCT,0.00,WeatherDisplay:10.37,2013-04-23 04:49:00,
2013-04-22 21:55:00,40.1,17.1,30.32,North,0,5.8,5.8,39,0.00,CLR,SCT,0.00,WeatherDisplay:10.37,2013-04-23 04:55:00,
2013-04-22 22:00:00,40.3,17.3,30.32,NNW,341,5.8,5.8,39,0.00,CLR,SCT,0.00,WeatherDisplay:10.37,2013-04-23 05:00:00,
2013-04-22 22:05:00,40.3,17.3,30.32,NNW,348,6.3,6.3,39,0.00,CLR,SCT,0.00,WeatherDisplay:10.37,2013-04-23 05:05:00,
2013-04-22 22:10:00,40.3,17.3,30.32,NNW,341,5.8,5.8,39,0.00,CLR,SCT,0.00,WeatherDisplay:10.37,2013-04-23 05:10:00,
2013-04-22 22:15:00,39.9,16.9,30.32,North,349,5.8,5.8,39,0.00,CLR,SCT,0.00,WeatherDisplay:10.37,2013-04-23 05:15:00,
2013-04-22 22:20:00,39.9,16.9,30.32,North,353,5.8,5.8,39,0.00,CLR,SCT,0.00,WeatherDisplay:10.37,2013-04-23 05:20:00,
2013-04-22 22:26:00,39.7,16.8,30.32,NNW,342,5.8,5.8,39,0.00,CLR,SCT,0.00,WeatherDisplay:10.37,2013-04-23 05:26:00,
2013-04-22 22:31:00,39.4,16.4,30.32,NNW,346,5.8,5.8,39,0.00,CLR,SCT,0.00,WeatherDisplay:10.37,2013-04-23 05:31:00,
2013-04-22 22:36:00,39.0,16.1,30.32,NNW,332,4.0,4.0,39,0.00,CLR,SCT,0.00,WeatherDisplay:10.37,2013-04-23 05:36:00,
2013-04-22 22:41:00,38.8,16.0,30.32,NNW,335,3.5,3.5,39,0.00,CLR,SCT,0.00,WeatherDisplay:10.37,2013-04-23 05:41:00,
2013-04-22 22:46:00,38.1,15.3,30.32,NW,325,3.1,0.0,39,0.00,CLR,SCT,0.00,WeatherDisplay:10.37,2013-04-23 05:46:00,
2013-04-22 22:52:00,37.2,15.1,30.32,NW,325,5.8,5.8,40,0.00,CLR,SCT,0.00,WeatherDisplay:10.37,2013-04-23 05:52:00,
2013-04-22 22:57:00,36.5,14.4,30.32,SSE,157,5.8,5.8,40,0.00,CLR,SCT,0.00,WeatherDisplay:10.37,2013-04-23 05:57:00,
2013-04-22 23:02:00,36.1,14.1,30.32,SSE,163,3.6,3.6,40,0.00,CLR,SCT,0.00,WeatherDisplay:10.37,2013-04-23 06:02:00,
2013-04-22 23:07:00,36.0,13.9,30.32,SSE,165,3.5,3.6,40,0.00,CLR,SCT,0.00,WeatherDisplay:10.37,2013-04-23 06:07:00,
2013-04-22 23:12:00,35.6,13.6,30.32,SSE,165,2.3,2.3,40,0.00,CLR,SCT,0.00,WeatherDisplay:10.37,2013-04-23 06:12:00,
2013-04-22 23:18:00,34.9,13.5,30.32,SW,222,3.5,3.6,41,0.00,CLR,SCT,0.00,WeatherDisplay:10.37,2013-04-23 06:18:00,
2013-04-22 23:23:00,34.7,13.4,30.32,SW,224,4.6,4.6,41,0.00,CLR,SCT,0.00,WeatherDisplay:10.37,2013-04-23 06:23:00,
2013-04-22 23:28:00,34.3,13.0,30.32,SW,224,3.5,0.0,41,0.00,CLR,SCT,0.00,WeatherDisplay:10.37,2013-04-23 06:28:00,
2013-04-22 23:33:00,34.3,13.0,30.32,SW,225,3.6,3.6,41,0.00,CLR,SCT,0.00,WeatherDisplay:10.37,2013-04-23 06:33:00,
2013-04-22 23:38:00,34.2,12.9,30.32,SW,225,3.5,3.5,41,0.00,CLR,SCT,0.00,WeatherDisplay:10.37,2013-04-23 06:38:00,
2013-04-22 23:43:00,33.6,12.9,30.32,SSE,160,4.6,4.6,42,0.00,CLR,SCT,0.00,WeatherDisplay:10.37,2013-04-23 06:43:00,
2013-04-22 23:48:00,32.7,12.1,30.32,SSE,164,4.6,4.6,42,0.00,CLR,SCT,0.00,WeatherDisplay:10.37,2013-04-23 06:48:00,
2013-04-22 23:53:00,32.0,11.5,30.29,South,172,5.8,5.8,42,0.00,CLR,SCT,0.00,WeatherDisplay:10.37,2013-04-23 06:53:00,
2013-04-22 23:59:00,31.6,11.1,30.29,South,173,4.6,4.6,42,0.00,CLR,SCT,0.00,WeatherDisplay:10.37,2013-04-23 06:59:00,